H A Clark Memorial Field Information

FAA: CMR - ICAO: KCMR

H A Clark Memorial Field (Airport) Location

State Arizona
County Coconino
City Williams
H A Clark Memorial Field (Airport) is 3 miles north of Williams, AZ.
Latitude 35-18-19.8000N
Longitude 112-11-39.7000W
Elevation 6,690ft

H A Clark Memorial Field METARs

METAR KCMR 032235Z AUTO 23007G13KT 10SM CLR 14/M04 A3019 RMK AO2
Altimeter 30.19"
Temperature 14.0°C (57.2°F)
Wind 230° at 7KT with gusts to 13KT
Clouds Skies are clear.
Visibility 10.0mi
Time observed: 2021-12-03T22:35:00Z

H A Clark Memorial Field (Airport) Details

Status Operational
Activation November 1942
Ownership Public
Usage Public
Chart PHOENIX
ATC on-site No
Beacon schedule sunset-sunrise
Beacon color clear green

H A Clark Memorial Field (Airport) Contacts

Owner CITY OF WILLIAMS
Owner address 113 S FIRST ST, WILLIAMS, AZ 86046
Owner phone 928-635-4451
Manager PHIL LEROY
Manager address PO BOX 1078, WILLCOX, AZ 85644
Manager phone 520-253-0757

H A Clark Memorial Field Radio Frequencies

H A Clark Memorial Field (Airport) Radio Frequencies

UNICOM 122.8
Common traffic advisory frequency (CTAF) 122.8